KCAR/CAR METAR and TAF weather

Enter ICAO airport designator
Station Type Date Time Source
KCAR METAR 2020/10/29 16:54 UTC NOAA

KCAR 291654Z AUTO 34012KT 10SM BKN045 OVC050 03/M04 A2981 RMK AO2 SLP104 T00281044


Station Type Date Time Source
KCAR Decoded METAR 2020/10/29 16:54 UTC NOAA

CARIBOU MUNICIPAL AIRPORT, ME, United States (KCAR) 46-52N 68-01W 191M
Oct 29, 2020 - 12:54 PM EDT / 2020.10.29 1654 UTC
Wind: from the NNW (340 degrees) at 14 MPH (12 KT):0
Visibility: 10 mile(s):0
Sky conditions: overcast
Temperature: 37.0 F (2.8 C)
Dew Point: 24.1 F (-4.4 C)
Relative Humidity: 59%
Pressure (altimeter): 29.81 in. Hg (1009 hPa)
ob: KCAR 291654Z AUTO 34012KT 10SM BKN045 OVC050 03/M04 A2981 RMK AO2 SLP104 T00281044
cycle: 17

Station Type Date Time Source
KCAR TAF 2020/10/29 17:42 UTC NOAA

TAF
AMD KCAR 291640Z 2917/3012 33010G18KT P6SM BKN040
FM292000 32010G20KT P6SM SCT035
FM300000 33006KT P6SM SKC

Example: see airport list